Ham Lake, Minnesota
Current Conditions -  °F | °C
As of 2:45 PM on Tuesday 25 Nov 2014 (Local Time) from KANE Reporting Station
Overcast Overcast  
Wind Chill: 16°   Ceiling: 3900
Heat Index: 23°   Visibility: 10mi
Dew Point: 14°   Wind: 6mph
Humidity: 68%   Direction: 170°S
Pressure: 30.03"   Gusts: NA
Location:  45.2551°N, 93.2664°W
Report Text: KANE 252045Z 17005KT 10SM BKN039 OVC050 M05/M10 A3003
Loading
Personal Weather Stations






























Interactive Weather Map New forecast layout! Learn more

10-Day Weather Forecast

Advertisements
Track Severe Weather on mobile